This is the latest recevied weather packets stored in our database for station/object W4KBW. If no packets are shown the sender has not sent any weather packets the latest 10 day(s).
| Time | Temp. | Humidity | Pressure | Rain* | Wind** | Luminosity | Snow |
|---|---|---|---|---|---|---|---|
| 1777784260 | 19.44° C | 100% | 1013.9 hPa | 0.76 mm | - | - | - |
| 1777784201 | 19.44° C | 100% | 1013.9 hPa | 0.76 mm | - | - | - |
| 1777783911 | 19.44° C | 100% | 1013.9 hPa | 0.76 mm | - | - | - |
| 1777783129 | 20° C | 100% | 1013.3 hPa | 0.51 mm | - | - | - |
| 1777783011 | 20° C | 100% | 1013.3 hPa | 0.51 mm | - | - | - |
| 1777782307 | 20.56° C | 100% | 1013.2 hPa | 0.25 mm | - | - | - |
| 1777782081 | 20.56° C | 100% | 1013.2 hPa | 0.25 mm | - | - | - |
| 1777781330 | 21.11° C | 100% | 1012.7 hPa | 0 mm | - | - | - |
| 1777781259 | 21.11° C | 100% | 1012.7 hPa | 0 mm | - | - | - |
| 1777781151 | 21.11° C | 100% | 1012.7 hPa | 0 mm | - | - | - |
| 1777780221 | 21.67° C | 100% | 1012.1 hPa | 0 mm | - | - | - |
| 1777779511 | 22.78° C | 100% | 1011.6 hPa | 0 mm | - | - | - |
| 1777779321 | 22.78° C | 100% | 1011.6 hPa | 0 mm | - | - | - |
| 1777778421 | 22.78° C | 100% | 1011.7 hPa | 0 mm | - | - | - |
| 1777777491 | 22.78° C | 100% | 1011.6 hPa | 0 mm | - | - | - |
| 1777776970 | 22.78° C | 100% | 1011.4 hPa | 0 mm | - | - | - |
| 1777776591 | 22.78° C | 100% | 1011.4 hPa | 0 mm | - | - | - |
| 1777775691 | 22.78° C | 100% | 1011.3 hPa | 0 mm | - | - | - |
| 1777774791 | 22.22° C | 100% | 1011.1 hPa | 0 mm | - | - | - |
| 1777773891 | 22.22° C | 100% | 1010.6 hPa | 0 mm | - | - | - |
| 1777772961 | 22.22° C | 100% | 1010.1 hPa | 0 mm | - | - | - |
| 1777772499 | 22.22° C | 100% | 1010.1 hPa | 0 mm | - | - | - |
| 1777772061 | 22.22° C | 100% | 1010.1 hPa | 0 mm | - | - | - |
| 1777771161 | 22.22° C | 100% | 1010.1 hPa | 0 mm | - | - | - |
| 1777770231 | 22.22° C | 100% | 1009.6 hPa | 0 mm | - | - | - |
* Rain latest hour (hover to see other rain measurements)
** Current wind speed in m/s (hover to see current wind gust speed)